Portada
METAR-TAF:

METAR-TAF

Aeropuertos :

Washington Municipal Airport

Washington, Iowa, Estados Unidos

latitud: 41-17N, longitud: 091-40W, altitud: 230 m

Observación

El informe se hizo hace 13 minutos, a las 16:15 UTC
Viento 8 kt del este-sureste
Temperatura 26°C
Humedad 84%
Presión 1025 hPa
Visibilidad: 11.3 km
Cielo nuboso a una altura de 1200 ft
Cielo nuboso a una altura de 1800 ft

METAR: KAWG 201615Z AUTO 11008KT 7SM BKN012 BKN018 26/23 A3026 RMK AO2

Hora: 11:28 (16:28 UTC)


TAF: falta

Observaciones y pronósticos meteorológicos de más de 4000 aeropuertos (mensajes METAR y TAF).

Los puntos amarillos y rojos representan las estaciones disponibles.

Ponga el ratón en el punto deseado para ver el nombre de la estación.

Haga clic para ver las observaciones y los pronósticos meteorológicos.

Para cambiar el mapa : haga clic en los botones verdes con una cruz de color negro para hacer un zoom, en el botón verde con un guión para alejar o en las flechas verdes para mapas adyacentes.


METAR-TAF: